Terminal Aerodrome Forecast
Issued by NWS

Home | Current Version | Previous Version | Text Only | Print | Product List | Glossary On
Versions: 1 2 3 4 5 6 7 8 9 10 11 12 13
000
FTUS44 KJAN 221141
TAFHKS
TAF
KHKS 221141Z 2212/2312 18014G22KT P6SM BKN016 OVC030
     FM221300 19012G23KT 2SM SHRA BR VCTS BKN015CB OVC025
     FM221600 21009KT P6SM SHRA VCTS SCT050CB
     FM221900 25009KT P6SM SKC=

USA.gov is the U.S. government's official web portal to all federal, state and local government web resources and services.